Time;durP1;ratioP1;P1;durP2;ratioP2;P2;SDS_P1;SDS_P2;PMS_P1;PMS_P2;Temp;Humidity;BMP_temperature;BMP_pressure;BME280_temperature;BME280_humidity;BME280_pressure;Samples;Min_cycle;Max_cycle;Signal;HPM_P1;HPM_P2
2024/01/01 00:02:04;;;;;;;27.60;14.90;;;;;;;-145.18;100.00;46865.50;5086302;28;20336;-70
2024/01/01 00:04:30;;;;;;;31.20;16.00;;;;;;;-145.18;100.00;46871.38;5084692;28;20047;-72
2024/01/01 00:06:55;;;;;;;32.63;16.13;;;;;;;-145.18;100.00;46875.28;5084487;28;20502;-72
2024/01/01 00:09:21;;;;;;;26.80;11.67;;;;;;;-145.18;100.00;46877.22;5082985;28;20280;-72
2024/01/01 00:11:46;;;;;;;25.77;10.10;;;;;;;-145.18;100.00;46879.19;5088937;28;20035;-72
2024/01/01 00:14:12;;;;;;;14.87;6.83;;;;;;;-145.18;100.00;46883.09;5085872;28;20044;-72
2024/01/01 00:16:38;;;;;;;17.20;6.03;;;;;;;-145.18;100.00;46883.09;5091270;28;20035;-72
2024/01/01 00:19:03;;;;;;;16.13;5.47;;;;;;;-145.18;100.00;46875.28;5084243;28;20253;-72
2024/01/01 00:21:28;;;;;;;14.77;4.63;;;;;;;-145.18;100.00;46885.03;5090039;28;20050;-72
2024/01/01 00:23:54;;;;;;;20.63;7.50;;;;;;;-145.18;100.00;46881.13;5090196;28;20028;-72
2024/01/01 00:26:19;;;;;;;15.97;7.73;;;;;;;-145.18;100.00;46885.03;5090379;28;20267;-72
2024/01/01 00:28:44;;;;;;;17.57;8.23;;;;;;;-145.18;100.00;46887.00;5090219;28;20062;-72
2024/01/01 00:31:10;;;;;;;18.57;8.20;;;;;;;-145.18;100.00;46887.00;5084139;28;20119;-72
2024/01/01 00:33:35;;;;;;;13.17;6.03;;;;;;;-145.18;100.00;46885.03;5076212;28;20036;-72
2024/01/01 00:36:01;;;;;;;17.47;5.43;;;;;;;-145.18;100.00;46887.00;5089575;28;20036;-72
2024/01/01 00:38:26;;;;;;;12.23;4.60;;;;;;;-145.18;100.00;46888.94;5088348;28;20473;-72
2024/01/01 00:40:51;;;;;;;14.00;4.50;;;;;;;-145.18;100.00;46887.00;5077543;28;20047;-72
2024/01/01 00:43:17;;;;;;;12.47;3.80;;;;;;;-145.18;100.00;46890.91;5083862;28;20059;-72
2024/01/01 00:45:42;;;;;;;13.50;4.47;;;;;;;-145.18;100.00;46888.94;5088357;28;20141;-71
2024/01/01 00:48:08;;;;;;;11.37;3.97;;;;;;;-145.18;100.00;46892.84;5079535;28;20369;-71
2024/01/01 00:50:33;;;;;;;11.07;5.20;;;;;;;-145.18;100.00;46890.91;5085047;28;20039;-72
2024/01/01 00:52:59;;;;;;;11.00;3.80;;;;;;;-145.18;100.00;46887.00;5078316;28;20034;-72
2024/01/01 00:55:24;;;;;;;10.87;4.73;;;;;;;-145.18;100.00;46892.84;5084699;28;20077;-72
2024/01/01 00:57:49;;;;;;;8.50;3.57;;;;;;;-145.18;100.00;46892.84;5085951;28;20036;-71
2024/01/01 01:00:15;;;;;;;11.57;4.17;;;;;;;-145.18;100.00;46890.91;5083266;28;20043;-71
2024/01/01 01:02:40;;;;;;;15.50;3.40;;;;;;;-145.18;100.00;46888.94;5085700;28;20108;-72
2024/01/01 01:05:06;;;;;;;10.27;3.20;;;;;;;-145.18;100.00;46887.00;5090356;28;20028;-72
2024/01/01 01:07:31;;;;;;;10.47;4.20;;;;;;;-145.18;100.00;46890.91;5091722;28;20066;-72
2024/01/01 01:09:57;;;;;;;14.47;3.50;;;;;;;-145.18;100.00;46887.00;5089239;28;20040;-72
2024/01/01 01:12:22;;;;;;;7.97;2.90;;;;;;;-145.18;100.00;46887.00;5091016;28;20040;-72
2024/01/01 01:14:48;;;;;;;9.50;3.20;;;;;;;-145.18;100.00;46885.03;5090682;28;20043;-71
2024/01/01 01:17:14;;;;;;;8.27;2.77;;;;;;;-145.18;100.00;46883.09;5071876;28;20160;-70
2024/01/01 01:19:39;;;;;;;9.97;2.77;;;;;;;-145.18;100.00;46883.09;5091724;28;20351;-71
2024/01/01 01:22:05;;;;;;;14.13;3.63;;;;;;;-145.18;100.00;46875.28;5093370;28;20173;-70
2024/01/01 01:24:30;;;;;;;8.67;2.87;;;;;;;-145.18;100.00;46885.03;5075961;28;20369;-70
2024/01/01 01:26:55;;;;;;;6.13;2.50;;;;;;;-145.18;100.00;46887.00;5074527;28;20043;-70
2024/01/01 01:29:21;;;;;;;13.73;3.90;;;;;;;-145.18;100.00;46885.03;5087359;28;20528;-71
2024/01/01 01:31:46;;;;;;;10.07;3.50;;;;;;;-145.18;100.00;46885.03;5074548;28;20040;-70
2024/01/01 01:34:12;;;;;;;9.63;2.73;;;;;;;-145.18;100.00;46890.91;5091923;28;20032;-71
2024/01/01 01:36:38;;;;;;;5.07;2.43;;;;;;;-145.18;100.00;46894.81;5080776;28;20037;-70
2024/01/01 01:39:03;;;;;;;13.83;3.57;;;;;;;-145.18;100.00;46898.72;5080881;28;20295;-70
2024/01/01 01:41:29;;;;;;;6.77;2.90;;;;;;;-145.18;100.00;46900.66;5087696;28;20515;-70
2024/01/01 01:43:54;;;;;;;8.10;2.77;;;;;;;-145.18;100.00;46906.53;5092379;28;20484;-70
2024/01/01 01:46:20;;;;;;;8.23;2.33;;;;;;;-145.18;100.00;46910.44;5081729;28;20143;-71
2024/01/01 01:48:45;;;;;;;5.37;1.80;;;;;;;-145.18;100.00;46910.44;5091837;28;20476;-70
2024/01/01 01:51:11;;;;;;;9.17;2.63;;;;;;;-145.18;100.00;46918.25;5084883;28;20040;-71
2024/01/01 01:53:37;;;;;;;11.70;3.10;;;;;;;-145.18;100.00;46918.25;5075408;28;20032;-71
2024/01/01 01:56:04;;;;;;;15.10;3.40;;;;;;;-145.18;100.00;46922.16;5073977;28;20120;-71
2024/01/01 01:58:31;;;;;;;9.50;2.50;;;;;;;-145.18;100.00;46933.88;5083487;28;20050;-71
2024/01/01 02:00:58;;;;;;;11.13;2.43;;;;;;;-145.18;100.00;46935.81;5092146;28;20272;-71
2024/01/01 02:03:23;;;;;;;10.93;3.20;;;;;;;-145.18;100.00;46941.69;5076619;28;20288;-72
2024/01/01 02:05:48;;;;;;;8.97;2.40;;;;;;;-145.18;100.00;46943.63;5077283;28;20971;-71
2024/01/01 02:08:15;;;;;;;7.57;2.53;;;;;;;-145.18;100.00;46947.53;5072730;28;20032;-72
2024/01/01 02:10:41;;;;;;;18.30;2.20;;;;;;;-145.18;100.00;46955.34;5089673;28;20036;-71
2024/01/01 02:13:28;;;;;;;8.03;2.87;;;;;;;-145.18;100.00;46957.31;5080849;28;20272;-71
2024/01/01 02:15:54;;;;;;;15.67;2.70;;;;;;;-145.18;100.00;46965.13;5088019;28;20028;-71
2024/01/01 02:18:20;;;;;;;15.87;3.13;;;;;;;-145.18;100.00;46965.13;5084586;28;20249;-72
2024/01/01 02:20:45;;;;;;;17.70;2.77;;;;;;;-145.18;100.00;46972.94;5078706;28;20347;-71
2024/01/01 02:23:14;;;;;;;11.37;2.63;;;;;;;-145.18;100.00;46972.94;5088655;28;20032;-72
2024/01/01 02:25:40;;;;;;;13.00;2.43;;;;;;;-145.18;100.00;46976.84;5074741;28;20032;-73
2024/01/01 02:28:05;;;;;;;17.83;2.83;;;;;;;-145.18;100.00;46982.72;5077882;28;20261;-72
2024/01/01 02:30:31;;;;;;;23.47;3.23;;;;;;;-145.18;100.00;46984.66;5074644;28;20032;-72
2024/01/01 02:32:56;;;;;;;14.63;2.87;;;;;;;-145.18;100.00;46980.75;5088530;28;20045;-72
2024/01/01 02:35:22;;;;;;;17.00;4.87;;;;;;;-145.18;100.00;46986.63;5075025;28;20040;-73
2024/01/01 02:37:47;;;;;;;12.40;2.30;;;;;;;-145.18;100.00;46986.63;5077630;28;20055;-72
2024/01/01 02:40:12;;;;;;;16.77;3.03;;;;;;;-145.18;100.00;46988.56;5076994;28;20481;-72
2024/01/01 02:42:38;;;;;;;14.40;3.73;;;;;;;-145.18;100.00;46992.47;5072294;28;20029;-73
2024/01/01 02:45:05;;;;;;;14.53;2.93;;;;;;;-145.18;100.00;46992.47;5083149;28;20032;-73
2024/01/01 02:47:30;;;;;;;12.70;2.20;;;;;;;-145.18;100.00;46998.34;5077494;28;20387;-73
2024/01/01 02:49:55;;;;;;;15.27;2.90;;;;;;;-145.18;100.00;46998.34;5084176;28;20272;-73
2024/01/01 02:52:21;;;;;;;12.70;2.70;;;;;;;-145.18;100.00;46990.53;5088321;28;20492;-72
2024/01/01 02:54:46;;;;;;;17.17;3.17;;;;;;;-145.18;100.00;46992.47;5081092;28;20040;-73
2024/01/01 02:57:12;;;;;;;8.63;1.93;;;;;;;-145.18;100.00;46992.47;5079806;28;20535;-72
2024/01/01 02:59:39;;;;;;;10.93;2.63;;;;;;;-145.18;100.00;46998.34;5090790;28;20105;-72
2024/01/01 03:02:04;;;;;;;11.53;2.57;;;;;;;-145.18;100.00;46996.38;5077911;28;20728;-72
2024/01/01 03:04:31;;;;;;;13.33;2.73;;;;;;;-145.18;100.00;46994.44;5079330;28;20267;-73
2024/01/01 03:06:57;;;;;;;11.80;2.50;;;;;;;-145.18;100.00;46992.47;5090437;28;20032;-72
2024/01/01 03:09:22;;;;;;;11.90;2.10;;;;;;;-145.18;100.00;46994.44;5090779;28;20279;-72
2024/01/01 03:11:47;;;;;;;16.13;2.67;;;;;;;-145.18;100.00;46994.44;5078126;28;20032;-73
2024/01/01 03:14:13;;;;;;;11.40;2.23;;;;;;;-145.18;100.00;46998.34;5072293;28;20124;-72
2024/01/01 03:16:38;;;;;;;19.37;2.87;;;;;;;-145.18;100.00;46994.44;5073153;28;20064;-72
2024/01/01 03:19:03;;;;;;;13.53;2.63;;;;;;;-145.18;100.00;46994.44;5087095;28;20380;-73
2024/01/01 03:21:29;;;;;;;18.13;2.87;;;;;;;-145.18;100.00;46994.44;5078434;28;20107;-72
2024/01/01 03:23:54;;;;;;;15.80;2.27;;;;;;;-145.18;100.00;46994.44;5090845;28;20082;-72
2024/01/01 03:26:20;;;;;;;15.20;2.70;;;;;;;-145.18;100.00;46988.56;5084534;28;20036;-73
2024/01/01 03:28:45;;;;;;;15.57;2.50;;;;;;;-145.18;100.00;46990.53;5064577;28;20495;-72
2024/01/01 03:31:10;;;;;;;19.70;2.50;;;;;;;-145.18;100.00;46992.47;5087295;28;20049;-72
2024/01/01 03:33:36;;;;;;;18.70;3.03;;;;;;;-145.18;100.00;46990.53;5086950;28;20032;-72
2024/01/01 03:36:01;;;;;;;11.97;2.37;;;;;;;-145.18;100.00;46996.38;5087732;28;20077;-72
2024/01/01 03:38:27;;;;;;;12.20;2.13;;;;;;;-145.18;100.00;46994.44;5086816;28;20051;-72
2024/01/01 03:40:53;;;;;;;11.67;2.33;;;;;;;-145.18;100.00;46992.47;5088742;28;20040;-72
2024/01/01 03:43:19;;;;;;;17.27;4.53;;;;;;;-145.18;100.00;46988.56;5071240;28;20273;-72
2024/01/01 03:45:45;;;;;;;9.33;1.80;;;;;;;-145.18;100.00;46988.56;5091275;28;20082;-72
2024/01/01 03:48:11;;;;;;;13.20;2.67;;;;;;;-145.18;100.00;46986.63;5089560;28;20260;-73
2024/01/01 03:50:37;;;;;;;15.97;1.87;;;;;;;-145.18;100.00;46980.75;5091339;28;20507;-72
2024/01/01 03:53:03;;;;;;;22.43;2.10;;;;;;;-145.18;100.00;46984.66;5079068;28;20375;-72
2024/01/01 03:55:28;;;;;;;14.03;2.00;;;;;;;-145.18;100.00;46982.72;5075020;28;20077;-72
2024/01/01 03:57:54;;;;;;;9.53;1.80;;;;;;;-145.18;100.00;46982.72;5075329;28;20078;-72
2024/01/01 04:00:20;;;;;;;9.97;1.90;;;;;;;-145.18;100.00;46978.81;5076445;28;20078;-73
2024/01/01 04:02:46;;;;;;;13.57;1.83;;;;;;;-145.18;100.00;46976.84;5077209;28;20459;-72
2024/01/01 04:05:13;;;;;;;17.63;2.50;;;;;;;-145.18;100.00;46974.91;5076647;28;20032;-72
2024/01/01 04:07:38;;;;;;;16.73;2.37;;;;;;;-145.18;100.00;46971.00;5087661;28;20257;-72
2024/01/01 04:10:05;;;;;;;16.03;2.10;;;;;;;-145.18;100.00;46974.91;5065297;28;20880;-72
2024/01/01 04:12:31;;;;;;;11.93;2.77;;;;;;;-145.18;100.00;46971.00;5077304;28;20029;-72
2024/01/01 04:14:56;;;;;;;12.40;1.87;;;;;;;-145.18;100.00;46969.03;5075183;28;20273;-72
2024/01/01 04:17:22;;;;;;;11.20;1.80;;;;;;;-145.18;100.00;46972.94;5075813;28;20040;-73
2024/01/01 04:19:47;;;;;;;9.23;2.10;;;;;;;-145.18;100.00;46967.09;5078368;28;20497;-73
2024/01/01 04:22:16;;;;;;;15.50;2.47;;;;;;;-145.18;100.00;46969.03;5080409;28;20501;-73
2024/01/01 04:24:42;;;;;;;16.17;2.80;;;;;;;-145.18;100.00;46965.13;5078756;28;20032;-73
2024/01/01 04:27:08;;;;;;;8.23;2.03;;;;;;;-145.18;100.00;46965.13;5079921;28;20245;-73
2024/01/01 04:29:34;;;;;;;8.27;1.80;;;;;;;-145.18;100.00;46961.22;5078082;28;20741;-74
2024/01/01 04:31:59;;;;;;;14.60;2.23;;;;;;;-145.18;100.00;46963.19;5080339;28;20032;-73
2024/01/01 04:34:25;;;;;;;18.10;1.90;;;;;;;-145.18;100.00;46959.25;5077675;28;20063;-73
2024/01/01 04:36:50;;;;;;;10.13;2.17;;;;;;;-145.18;100.00;46965.13;5088996;28;20097;-73
2024/01/01 04:39:16;;;;;;;13.40;2.37;;;;;;;-145.18;100.00;46967.09;5081541;28;20504;-74
2024/01/01 04:41:41;;;;;;;12.90;2.20;;;;;;;-145.18;100.00;46965.13;5080497;28;20107;-73
2024/01/01 04:44:06;;;;;;;15.20;2.83;;;;;;;-145.18;100.00;46963.19;5076350;28;20040;-73
2024/01/01 04:46:32;;;;;;;16.27;2.43;;;;;;;-145.18;100.00;46971.00;5089361;28;20472;-73
2024/01/01 04:48:57;;;;;;;18.57;2.37;;;;;;;-145.18;100.00;46965.13;5085189;28;20028;-73
2024/01/01 04:51:23;;;;;;;16.20;2.00;;;;;;;-145.18;100.00;46967.09;5083772;28;20032;-73
2024/01/01 04:53:48;;;;;;;13.87;2.80;;;;;;;-145.18;100.00;46971.00;5081257;28;20081;-73
2024/01/01 04:56:14;;;;;;;16.20;2.47;;;;;;;-145.18;100.00;46974.91;5079209;28;20079;-72
2024/01/01 04:58:39;;;;;;;21.47;3.13;;;;;;;-145.18;100.00;46976.84;5081808;28;20399;-72
2024/01/01 05:01:05;;;;;;;11.60;2.70;;;;;;;-145.18;100.00;46980.75;5084602;28;20175;-72
2024/01/01 05:03:31;;;;;;;12.40;2.33;;;;;;;-145.18;100.00;46974.91;5079344;28;20403;-73
2024/01/01 05:05:57;;;;;;;11.43;2.13;;;;;;;-145.18;100.00;46972.94;5076948;28;20257;-72
2024/01/01 05:08:23;;;;;;;17.43;2.27;;;;;;;-145.18;100.00;46972.94;5078592;28;20280;-72
2024/01/01 05:10:48;;;;;;;15.73;2.87;;;;;;;-145.18;100.00;46972.94;5091139;28;20403;-73
2024/01/01 05:13:15;;;;;;;17.37;2.30;;;;;;;-145.18;100.00;46971.00;5082301;28;20036;-73
2024/01/01 05:15:41;;;;;;;18.20;2.83;;;;;;;-145.18;100.00;46967.09;5077789;28;20161;-72
2024/01/01 05:18:06;;;;;;;18.60;3.27;;;;;;;-145.18;100.00;46974.91;5082595;28;20372;-73
2024/01/01 05:20:32;;;;;;;15.87;2.80;;;;;;;-145.18;100.00;46967.09;5080835;28;20764;-72
2024/01/01 05:22:57;;;;;;;12.53;2.40;;;;;;;-145.18;100.00;46967.09;5090302;28;20040;-72
2024/01/01 05:25:23;;;;;;;13.33;1.97;;;;;;;-145.18;100.00;46961.22;5084905;28;20031;-72
2024/01/01 05:27:48;;;;;;;8.53;2.37;;;;;;;-145.18;100.00;46961.22;5086120;28;20032;-72
2024/01/01 05:30:14;;;;;;;13.43;2.70;;;;;;;-145.18;100.00;46961.22;5088054;28;20150;-72
2024/01/01 05:32:39;;;;;;;6.30;1.67;;;;;;;-145.18;100.00;46959.25;5081373;28;20047;-73
2024/01/01 05:35:05;;;;;;;16.37;1.93;;;;;;;-145.18;100.00;46957.31;5082628;28;20111;-72
2024/01/01 05:37:30;;;;;;;12.67;1.90;;;;;;;-145.18;100.00;46955.34;5090846;28;20028;-73
2024/01/01 05:39:56;;;;;;;17.07;2.00;;;;;;;-145.18;100.00;46957.31;5084573;28;20036;-72
2024/01/01 05:42:21;;;;;;;21.43;2.57;;;;;;;-145.18;100.00;46955.34;5083244;28;20036;-72
2024/01/01 05:44:46;;;;;;;14.17;2.03;;;;;;;-145.18;100.00;46953.41;5087108;28;20040;-72
2024/01/01 05:47:12;;;;;;;11.87;2.10;;;;;;;-145.18;100.00;46955.34;5078253;28;20020;-73
2024/01/01 05:49:37;;;;;;;19.60;2.00;;;;;;;-145.18;100.00;46951.44;5084335;28;20028;-72
2024/01/01 05:52:03;;;;;;;18.53;3.13;;;;;;;-145.18;100.00;46953.41;5084001;28;20132;-72
2024/01/01 05:54:28;;;;;;;13.53;2.23;;;;;;;-145.18;100.00;46955.34;5086786;28;20063;-70
2024/01/01 05:56:54;;;;;;;11.80;2.20;;;;;;;-145.18;100.00;46953.41;5080281;28;20024;-70
2024/01/01 05:59:19;;;;;;;7.90;1.63;;;;;;;-145.18;100.00;46957.31;5077892;28;20036;-70
2024/01/01 06:01:45;;;;;;;14.10;1.80;;;;;;;-145.18;100.00;46951.44;5089274;28;20055;-70
2024/01/01 06:04:10;;;;;;;13.97;1.80;;;;;;;-145.18;100.00;46953.41;5081514;28;20118;-70
2024/01/01 06:06:36;;;;;;;12.53;2.30;;;;;;;-145.18;100.00;46955.34;5080071;28;20115;-71
2024/01/01 06:09:01;;;;;;;11.60;2.77;;;;;;;-145.18;100.00;46957.31;5085086;28;20031;-71
2024/01/01 06:11:27;;;;;;;13.97;2.40;;;;;;;-145.18;100.00;46955.34;5080775;28;20385;-70
2024/01/01 06:13:52;;;;;;;9.20;2.10;;;;;;;-145.18;100.00;46963.19;5083138;28;20044;-70
2024/01/01 06:16:18;;;;;;;9.23;2.30;;;;;;;-145.18;100.00;46957.31;5073911;28;20044;-70
2024/01/01 06:18:44;;;;;;;8.23;2.07;;;;;;;-145.18;100.00;46965.13;5086420;28;20456;-70
2024/01/01 06:21:09;;;;;;;15.73;3.07;;;;;;;-145.18;100.00;46967.09;5085112;28;20033;-70
2024/01/01 06:23:35;;;;;;;10.43;2.73;;;;;;;-145.18;100.00;46967.09;5089412;28;20036;-71
2024/01/01 06:26:01;;;;;;;7.67;2.50;;;;;;;-145.18;100.00;46972.94;5088891;28;20468;-71
2024/01/01 06:28:26;;;;;;;17.93;3.13;;;;;;;-145.18;100.00;46972.94;5090966;28;20470;-71
2024/01/01 06:30:52;;;;;;;12.07;2.67;;;;;;;-145.18;100.00;46971.00;5084958;28;20526;-71
2024/01/01 06:33:17;;;;;;;20.93;4.10;;;;;;;-145.18;100.00;46974.91;5064204;28;20036;-71
2024/01/01 06:35:43;;;;;;;18.03;3.30;;;;;;;-145.18;100.00;46969.03;5087414;28;20340;-71
2024/01/01 06:38:08;;;;;;;13.40;3.00;;;;;;;-145.18;100.00;46972.94;5086824;28;20522;-71
2024/01/01 06:40:34;;;;;;;15.10;3.27;;;;;;;-145.18;100.00;46972.94;5084601;28;20032;-71
2024/01/01 06:42:59;;;;;;;14.33;2.67;;;;;;;-145.18;100.00;46980.75;5087753;28;20032;-71
2024/01/01 06:45:24;;;;;;;12.93;4.10;;;;;;;-145.18;100.00;46984.66;5088201;28;20032;-72
2024/01/01 06:47:50;;;;;;;20.63;3.43;;;;;;;-145.18;100.00;46984.66;5089125;28;20554;-71
2024/01/01 06:50:15;;;;;;;18.67;3.03;;;;;;;-145.18;100.00;46982.72;5088000;28;20036;-70
2024/01/01 06:52:41;;;;;;;24.90;3.93;;;;;;;-145.18;100.00;46986.63;5091891;28;20039;-71
2024/01/01 06:55:06;;;;;;;13.67;2.70;;;;;;;-145.18;100.00;46986.63;5065051;28;20028;-70
2024/01/01 06:57:32;;;;;;;19.67;3.77;;;;;;;-145.18;100.00;46990.53;5073245;28;20261;-71
2024/01/01 06:59:58;;;;;;;22.33;3.67;;;;;;;-145.18;100.00;46990.53;5081191;28;20479;-70
2024/01/01 07:02:25;;;;;;;13.70;2.97;;;;;;;-145.18;100.00;46988.56;5086791;28;20510;-71
2024/01/01 07:04:51;;;;;;;17.13;2.43;;;;;;;-145.18;100.00;46992.47;5075578;28;20055;-71
2024/01/01 07:07:16;;;;;;;15.53;2.80;;;;;;;-145.18;100.00;46988.56;5074391;28;20741;-71
2024/01/01 07:09:42;;;;;;;14.93;3.03;;;;;;;-145.18;100.00;46988.56;5086327;28;20059;-71
2024/01/01 07:12:19;;;;;;;15.90;2.53;;;;;;;-145.18;100.00;46992.47;5090295;28;20042;-71
2024/01/01 07:14:45;;;;;;;22.33;3.20;;;;;;;-145.18;100.00;46988.56;5087806;28;20040;-71
2024/01/01 07:17:10;;;;;;;9.00;1.93;;;;;;;-145.18;100.00;46988.56;5077747;28;20281;-70
2024/01/01 07:19:36;;;;;;;9.70;2.93;;;;;;;-145.18;100.00;46994.44;5087704;28;20315;-71
2024/01/01 07:22:01;;;;;;;14.20;2.50;;;;;;;-145.18;100.00;46992.47;5081503;28;20067;-70
2024/01/01 07:24:27;;;;;;;20.67;2.50;;;;;;;-145.18;100.00;46990.53;5080217;28;20085;-71
2024/01/01 07:26:52;;;;;;;16.20;2.43;;;;;;;-145.18;100.00;46988.56;5078113;28;20484;-71
2024/01/01 07:29:17;;;;;;;16.77;3.63;;;;;;;-145.18;100.00;46988.56;5078176;28;20149;-71
2024/01/01 07:31:43;;;;;;;13.40;2.03;;;;;;;-145.18;100.00;46988.56;5082013;28;20107;-71
2024/01/01 07:34:09;;;;;;;18.80;3.37;;;;;;;-145.18;100.00;46988.56;5079514;28;20400;-71
2024/01/01 07:36:34;;;;;;;14.53;2.43;;;;;;;-145.18;100.00;46984.66;5079562;28;20081;-71
2024/01/01 07:39:00;;;;;;;24.00;2.90;;;;;;;-145.18;100.00;46984.66;5076668;28;20301;-71
2024/01/01 07:41:25;;;;;;;13.33;2.27;;;;;;;-145.18;100.00;46984.66;5082737;28;20063;-71
2024/01/01 07:43:51;;;;;;;8.23;1.90;;;;;;;-145.18;100.00;46982.72;5071751;28;20045;-71
2024/01/01 07:46:17;;;;;;;8.23;1.83;;;;;;;-145.18;100.00;46986.63;5083310;28;20036;-70
2024/01/01 07:48:42;;;;;;;15.43;2.43;;;;;;;-145.18;100.00;46988.56;5082934;28;20028;-71
2024/01/01 07:51:08;;;;;;;17.93;2.97;;;;;;;-145.18;100.00;46992.47;5086388;28;20649;-70
2024/01/01 07:53:33;;;;;;;15.83;3.50;;;;;;;-145.18;100.00;46988.56;5085070;28;20028;-70
2024/01/01 07:56:04;;;;;;;16.37;3.03;;;;;;;-145.18;100.00;46986.63;5086207;28;20035;-71
2024/01/01 07:58:30;;;;;;;8.30;2.33;;;;;;;-145.18;100.00;46980.75;5084255;28;20445;-71
2024/01/01 08:00:55;;;;;;;13.57;2.10;;;;;;;-145.18;100.00;46978.81;5078973;28;20360;-70
2024/01/01 08:03:21;;;;;;;11.23;1.90;;;;;;;-145.18;100.00;46982.72;5087773;28;20039;-71
2024/01/01 08:05:46;;;;;;;15.90;2.77;;;;;;;-145.18;100.00;46976.84;5084067;28;20028;-70
2024/01/01 08:08:12;;;;;;;12.23;3.43;;;;;;;-145.18;100.00;46984.66;5079448;28;20024;-70
2024/01/01 08:10:38;;;;;;;10.83;2.17;;;;;;;-145.18;100.00;46982.72;5085101;28;20075;-70
2024/01/01 08:13:03;;;;;;;17.03;2.97;;;;;;;-145.18;100.00;46990.53;5080584;28;20107;-73
2024/01/01 08:15:29;;;;;;;12.63;2.63;;;;;;;-145.18;100.00;46988.56;5086122;28;20067;-75
2024/01/01 08:17:54;;;;;;;21.23;3.03;;;;;;;-145.18;100.00;46994.44;5092626;28;20557;-75
2024/01/01 08:20:20;;;;;;;16.73;3.43;;;;;;;-145.18;100.00;46990.53;5087243;28;20064;-74
2024/01/01 08:22:45;;;;;;;9.43;2.33;;;;;;;-145.18;100.00;46992.47;5085666;28;20040;-75
2024/01/01 08:25:11;;;;;;;13.80;2.73;;;;;;;-145.18;100.00;46998.34;5084127;28;20521;-76
2024/01/01 08:27:36;;;;;;;13.57;2.37;;;;;;;-145.18;100.00;46994.44;5087502;28;20032;-76
2024/01/01 08:30:03;;;;;;;13.83;2.47;;;;;;;-145.18;100.00;46992.47;5083229;28;20056;-74
2024/01/01 08:32:29;;;;;;;17.83;3.43;;;;;;;-145.18;100.00;46996.38;5089228;28;20077;-75
2024/01/01 08:34:54;;;;;;;12.33;3.70;;;;;;;-145.18;100.00;47000.28;5093962;28;20957;-75
2024/01/01 08:37:20;;;;;;;17.33;3.73;;;;;;;-145.18;100.00;46998.34;5092632;28;20032;-74
2024/01/01 08:39:45;;;;;;;12.97;2.83;;;;;;;-145.18;100.00;47002.25;5085314;28;20044;-75
2024/01/01 08:42:10;;;;;;;10.60;2.40;;;;;;;-145.18;100.00;47000.28;5083030;28;20035;-75
2024/01/01 08:44:39;;;;;;;12.87;1.73;;;;;;;-145.18;100.00;47004.19;5091935;28;20075;-74
2024/01/01 08:47:04;;;;;;;6.93;1.97;;;;;;;-145.18;100.00;46998.34;5094258;28;20545;-75
2024/01/01 08:49:30;;;;;;;7.93;2.20;;;;;;;-145.18;100.00;46998.34;5088262;28;20270;-75
2024/01/01 08:51:55;;;;;;;8.80;2.30;;;;;;;-145.18;100.00;46992.47;5081797;28;20029;-74
2024/01/01 08:54:22;;;;;;;9.00;1.43;;;;;;;-145.18;100.00;46996.38;5081671;28;20111;-74
2024/01/01 08:56:48;;;;;;;16.97;2.47;;;;;;;-145.18;100.00;46994.44;5088834;28;20040;-74
2024/01/01 08:59:15;;;;;;;12.50;2.73;;;;;;;-145.18;100.00;46986.63;5081353;28;20261;-74
2024/01/01 09:01:45;;;;;;;15.83;2.57;;;;;;;-145.18;100.00;46986.63;5092869;28;20032;-74
2024/01/01 09:04:10;;;;;;;13.13;2.33;;;;;;;-145.18;100.00;46984.66;5083765;28;20360;-74
2024/01/01 09:06:35;;;;;;;15.70;3.67;;;;;;;-145.18;100.00;46984.66;5087476;28;20791;-75
2024/01/01 09:09:01;;;;;;;12.37;3.23;;;;;;;-145.18;100.00;46988.56;5087766;28;20337;-74
2024/01/01 09:11:26;;;;;;;9.43;2.00;;;;;;;-145.18;100.00;46986.63;5082678;28;20032;-75
2024/01/01 09:13:52;;;;;;;14.93;1.90;;;;;;;-145.18;100.00;46990.53;5085126;28;20129;-75
2024/01/01 09:16:17;;;;;;;14.17;2.53;;;;;;;-145.18;100.00;46986.63;5076677;28;20050;-75
2024/01/01 09:18:42;;;;;;;11.13;2.90;;;;;;;-145.18;100.00;46990.53;5091407;28;20039;-74
2024/01/01 09:21:17;;;;;;;17.37;2.40;;;;;;;-145.18;100.00;46990.53;5084118;28;20032;-74
2024/01/01 09:23:43;;;;;;;10.85;2.22;;;;;;;-145.18;100.00;46988.56;5083911;28;20032;-70
2024/01/01 09:26:08;;;;;;;13.90;2.47;;;;;;;-145.18;100.00;46992.47;5084370;28;20028;-70
2024/01/01 09:28:35;;;;;;;9.27;1.93;;;;;;;-145.18;100.00;46988.56;5083619;28;20411;-70
2024/01/01 09:31:00;;;;;;;8.80;1.47;;;;;;;-145.18;100.00;46988.56;5089057;28;20391;-70
2024/01/01 09:33:26;;;;;;;9.83;1.73;;;;;;;-145.18;100.00;46986.63;5091447;28;20257;-70
2024/01/01 09:35:55;;;;;;;9.40;1.00;;;;;;;-145.18;100.00;46984.66;5090155;28;20028;-71
2024/01/01 09:38:21;;;;;;;11.13;1.77;;;;;;;-145.18;100.00;46974.91;5086774;28;20055;-70
2024/01/01 09:40:47;;;;;;;10.73;1.30;;;;;;;-145.18;100.00;46982.72;5083613;28;20613;-70
2024/01/01 09:43:16;;;;;;;11.80;1.50;;;;;;;-145.18;100.00;46980.75;5090339;28;20340;-71
2024/01/01 09:45:42;;;;;;;10.07;1.77;;;;;;;-145.18;100.00;46972.94;5084932;28;20024;-69
2024/01/01 09:48:08;;;;;;;12.73;1.80;;;;;;;-145.18;100.00;46972.94;5084821;28;20767;-70
2024/01/01 09:50:34;;;;;;;8.97;1.23;;;;;;;-145.18;100.00;46965.13;5072450;28;20254;-70
2024/01/01 09:52:59;;;;;;;9.63;1.67;;;;;;;-145.18;100.00;46963.19;5073387;28;20047;-70
2024/01/01 09:55:25;;;;;;;9.97;2.20;;;;;;;-145.18;100.00;46965.13;5088845;28;20756;-70
2024/01/01 09:57:50;;;;;;;15.63;2.13;;;;;;;-145.18;100.00;46963.19;5093389;28;20032;-70
2024/01/01 10:00:20;;;;;;;14.33;1.77;;;;;;;-145.18;100.00;46961.22;5086681;28;20074;-70
2024/01/01 10:02:45;;;;;;;14.07;2.00;;;;;;;-145.18;100.00;46961.22;5081306;28;20638;-70
2024/01/01 10:05:15;;;;;;;12.20;2.20;;;;;;;-145.18;100.00;46967.09;5072866;28;20356;-70
2024/01/01 10:07:41;;;;;;;8.53;1.43;;;;;;;-145.18;100.00;46961.22;5072817;28;20098;-70
2024/01/01 10:10:07;;;;;;;17.73;1.73;;;;;;;-145.18;100.00;46955.34;5077004;28;20327;-70
2024/01/01 10:12:33;;;;;;;14.00;2.03;;;;;;;-145.18;100.00;46959.25;5085327;28;20056;-70
2024/01/01 10:14:59;;;;;;;14.73;1.83;;;;;;;-145.18;100.00;46955.34;5090260;28;20248;-70
2024/01/01 10:17:24;;;;;;;12.30;1.50;;;;;;;-145.18;100.00;46947.53;5092053;28;20763;-70
2024/01/01 10:19:51;;;;;;;6.63;0.93;;;;;;;-145.18;100.00;46941.69;5090596;28;20024;-70
2024/01/01 10:22:18;;;;;;;6.00;0.80;;;;;;;-145.18;100.00;46935.81;5086467;28;20084;-70
2024/01/01 10:24:45;;;;;;;17.07;6.13;;;;;;;-145.18;100.00;46935.81;5091005;28;20670;-70
2024/01/01 10:27:12;;;;;;;12.33;2.37;;;;;;;-145.18;100.00;46931.91;5087996;28;20268;-71
2024/01/01 10:29:38;;;;;;;7.00;1.40;;;;;;;-145.18;100.00;46939.72;5090507;28;20280;-71
2024/01/01 10:32:04;;;;;;;9.90;1.87;;;;;;;-145.18;100.00;46937.78;5091997;28;20287;-70
2024/01/01 10:34:32;;;;;;;11.33;1.57;;;;;;;-145.18;100.00;46931.91;5092308;28;20032;-70
2024/01/01 10:36:58;;;;;;;10.67;1.97;;;;;;;-145.18;100.00;46929.97;5090967;28;20273;-70
2024/01/01 10:39:24;;;;;;;8.77;1.30;;;;;;;-145.18;100.00;46922.16;5087323;28;20359;-70
2024/01/01 10:41:51;;;;;;;13.20;1.57;;;;;;;-145.18;100.00;46922.16;5091127;28;20375;-70
2024/01/01 10:44:16;;;;;;;12.63;1.80;;;;;;;-145.18;100.00;46922.16;5086060;28;20599;-70
2024/01/01 10:46:45;;;;;;;11.67;1.40;;;;;;;-145.18;100.00;46920.19;5089848;28;20339;-71
2024/01/01 10:49:16;;;;;;;8.57;1.47;;;;;;;-145.18;100.00;46914.34;5088559;28;20024;-70
2024/01/01 10:52:00;;;;;;;21.67;2.30;;;;;;;-145.18;100.00;46910.44;5092169;28;20798;-71
2024/01/01 10:54:54;;;;;;;14.33;1.70;;;;;;;-145.18;100.00;46904.56;5085872;28;20289;-70
2024/01/01 10:57:53;;;;;;;11.20;1.73;;;;;;;-145.18;100.00;46904.56;5085752;28;20687;-70